createdAt,value
2022-11-15T00:01:00.970Z,7.4
2022-11-15T00:02:01.009Z,7.3
2022-11-15T00:05:00.954Z,7.2
2022-11-15T00:06:00.954Z,7.1
2022-11-15T00:08:00.972Z,7.3
2022-11-15T00:09:00.933Z,7.1
2022-11-15T00:13:00.940Z,6.9
2022-11-15T00:14:00.937Z,7
2022-11-15T00:15:01.120Z,6.9
2022-11-15T00:17:01.014Z,6.8
2022-11-15T00:20:00.972Z,7
2022-11-15T00:21:01.017Z,6.7
2022-11-15T00:25:00.968Z,6.6
2022-11-15T00:27:00.954Z,6.4
2022-11-15T00:31:00.966Z,6.3
2022-11-15T00:34:00.977Z,6.1
2022-11-15T00:38:01.018Z,6
2022-11-15T00:40:00.973Z,6
2022-11-15T00:43:01.053Z,5.9
2022-11-15T00:45:01.009Z,5.9
2022-11-15T00:47:00.971Z,5.9
2022-11-15T00:49:00.981Z,5.9
2022-11-15T00:52:01.049Z,5.8
2022-11-15T00:55:00.998Z,5.7
2022-11-15T00:57:00.948Z,5.7
2022-11-15T01:02:01.042Z,5.6
2022-11-15T01:05:00.991Z,5.6
2022-11-15T01:06:00.987Z,5.7
2022-11-15T01:09:01.000Z,5.6
2022-11-15T01:11:01.069Z,5.7
2022-11-15T01:12:00.980Z,5.5
2022-11-15T01:14:00.983Z,5.6
2022-11-15T01:16:00.999Z,5.5
2022-11-15T01:18:01.062Z,5.4
2022-11-15T01:22:00.943Z,5.5
2022-11-15T01:25:00.953Z,5.3
2022-11-15T01:26:00.980Z,5.4
2022-11-15T01:28:01.005Z,5.4
2022-11-15T01:30:01.192Z,5.3
2022-11-15T01:32:00.927Z,5.2
2022-11-15T01:33:00.936Z,5.3
2022-11-15T01:35:00.961Z,5.1
2022-11-15T01:37:00.950Z,5.1
2022-11-15T01:40:00.934Z,5.1
2022-11-15T01:41:00.923Z,5.2
2022-11-15T01:43:00.965Z,5.3
2022-11-15T01:46:00.941Z,5.5
2022-11-15T01:48:00.938Z,5.6
2022-11-15T01:49:00.934Z,5.7
2022-11-15T01:50:00.935Z,5.6
2022-11-15T01:51:00.954Z,5.7
2022-11-15T01:52:00.984Z,5.8
2022-11-15T01:55:00.991Z,5.8
2022-11-15T01:57:00.943Z,5.6
2022-11-15T01:58:00.938Z,5.7
2022-11-15T02:01:01.019Z,5.5
2022-11-15T02:06:00.944Z,5.6
2022-11-15T02:07:00.979Z,5.5
2022-11-15T02:09:00.981Z,5.6
2022-11-15T02:11:00.929Z,5.5
2022-11-15T02:13:00.961Z,5.4
2022-11-15T02:16:03.124Z,5.4
2022-11-15T02:17:01.046Z,5.5
2022-11-15T02:19:00.956Z,5.4
2022-11-15T02:20:00.998Z,5.5
2022-11-15T02:24:00.984Z,5.6
2022-11-15T02:30:01.010Z,5.7
2022-11-15T02:32:00.950Z,5.5
2022-11-15T02:34:00.928Z,5.7
2022-11-15T02:37:00.931Z,5.8
2022-11-15T02:39:00.977Z,5.7
2022-11-15T02:40:00.983Z,5.9
2022-11-15T02:42:00.943Z,5.8
2022-11-15T02:43:04.428Z,6
2022-11-15T02:44:00.947Z,5.9
2022-11-15T02:45:01.017Z,5.8
2022-11-15T02:49:00.932Z,5.8
2022-11-15T02:51:00.976Z,5.9
2022-11-15T02:53:00.936Z,6
2022-11-15T02:54:00.944Z,5.8
2022-11-15T02:55:00.936Z,5.7
2022-11-15T02:58:00.961Z,5.9
2022-11-15T02:59:00.967Z,5.8
2022-11-15T03:02:00.973Z,6
2022-11-15T03:06:00.964Z,6
2022-11-15T03:08:02.435Z,6
2022-11-15T03:12:00.938Z,6.1
2022-11-15T03:14:00.935Z,6
2022-11-15T03:15:01.142Z,6.1
2022-11-15T03:18:00.965Z,6.2
2022-11-15T03:19:00.950Z,6.1
2022-11-15T03:22:00.967Z,6
2022-11-15T03:24:00.987Z,6
2022-11-15T03:27:00.986Z,6
2022-11-15T03:29:00.985Z,5.9
2022-11-15T03:30:01.122Z,6.1
2022-11-15T03:33:01.004Z,5.9
2022-11-15T03:34:00.971Z,6
2022-11-15T03:35:00.996Z,5.9
2022-11-15T03:37:00.944Z,5.9
2022-11-15T03:39:00.956Z,6
2022-11-15T03:42:00.965Z,5.9
2022-11-15T03:45:01.016Z,6
2022-11-15T03:47:00.978Z,6
2022-11-15T03:49:01.074Z,6
2022-11-15T03:52:00.965Z,6.2
2022-11-15T03:53:01.045Z,6
2022-11-15T03:55:00.964Z,6.1
2022-11-15T04:00:01.078Z,6
2022-11-15T04:02:00.945Z,6.2
2022-11-15T04:03:00.959Z,6.1
2022-11-15T04:06:00.956Z,6.2
2022-11-15T04:08:00.932Z,6.1
2022-11-15T04:10:00.953Z,6.2
2022-11-15T04:12:01.004Z,6.3
2022-11-15T04:13:00.978Z,6.2
2022-11-15T04:15:01.052Z,6.3
2022-11-15T04:17:00.957Z,6.3
2022-11-15T04:18:00.940Z,6.4
2022-11-15T04:19:00.971Z,6.2
2022-11-15T04:21:00.940Z,6.4
2022-11-15T04:23:00.947Z,6.3
2022-11-15T04:26:00.989Z,6.1
2022-11-15T04:28:00.930Z,6.2
2022-11-15T04:29:00.933Z,6.3
2022-11-15T04:31:01.001Z,6.2
2022-11-15T04:33:00.956Z,6.2
2022-11-15T04:34:00.957Z,6.3
2022-11-15T04:36:00.967Z,6.3
2022-11-15T04:38:00.961Z,6.4
2022-11-15T04:39:00.977Z,6.2
2022-11-15T04:41:00.956Z,6.3
2022-11-15T04:43:03.732Z,6.1
2022-11-15T04:44:01.018Z,6.2
2022-11-15T04:47:00.941Z,6.1
2022-11-15T04:48:00.966Z,6
2022-11-15T04:50:00.984Z,6
2022-11-15T04:51:00.978Z,6.1
2022-11-15T04:56:00.938Z,6
2022-11-15T05:01:00.989Z,6.1
2022-11-15T05:03:00.999Z,6.1
2022-11-15T05:05:00.989Z,6
2022-11-15T05:07:01.068Z,6.1
2022-11-15T05:09:00.945Z,6
2022-11-15T05:12:00.983Z,5.9
2022-11-15T05:14:00.954Z,5.8
2022-11-15T05:15:00.935Z,5.9
2022-11-15T05:18:00.973Z,6
2022-11-15T05:19:00.987Z,5.8
2022-11-15T05:20:00.989Z,5.9
2022-11-15T05:21:01.228Z,5.8
2022-11-15T05:23:00.968Z,5.8
2022-11-15T05:25:00.951Z,5.9
2022-11-15T05:26:03.915Z,5.7
2022-11-15T05:27:00.995Z,5.8
2022-11-15T05:29:01.051Z,5.9
2022-11-15T05:31:00.976Z,5.7
2022-11-15T05:34:00.985Z,5.6
2022-11-15T05:38:00.981Z,5.6
2022-11-15T05:40:00.975Z,5.7
2022-11-15T05:43:00.975Z,5.7
2022-11-15T05:46:01.085Z,5.6
2022-11-15T05:48:00.991Z,5.7
2022-11-15T05:50:00.969Z,5.8
2022-11-15T05:51:01.047Z,5.6
2022-11-15T05:53:04.797Z,5.8
2022-11-15T05:57:01.015Z,5.6
2022-11-15T05:59:00.959Z,5.6
2022-11-15T06:00:01.646Z,5.5
2022-11-15T06:02:01.032Z,5.7
2022-11-15T06:03:00.984Z,5.5
2022-11-15T06:04:01.035Z,5.6
2022-11-15T06:06:01.052Z,5.7
2022-11-15T06:09:00.946Z,5.5
2022-11-15T06:10:01.005Z,5.6
2022-11-15T06:13:00.965Z,5.7
2022-11-15T06:14:00.985Z,5.6
2022-11-15T06:15:01.101Z,5.7
2022-11-15T06:17:00.988Z,5.7
2022-11-15T06:19:01.060Z,5.7
2022-11-15T06:23:00.945Z,5.6
2022-11-15T06:24:00.944Z,5.7
2022-11-15T06:25:05.118Z,5.6
2022-11-15T06:26:00.960Z,5.7
2022-11-15T06:31:00.973Z,5.8
2022-11-15T06:32:00.979Z,5.9
2022-11-15T06:36:00.954Z,5.9
2022-11-15T06:41:00.995Z,6
2022-11-15T06:43:00.971Z,5.9
2022-11-15T06:44:01.000Z,6
2022-11-15T06:47:00.962Z,6.2
2022-11-15T06:49:03.968Z,6.2
2022-11-15T06:50:00.966Z,6.1
2022-11-15T06:53:00.950Z,6.2
2022-11-15T06:55:00.978Z,6
2022-11-15T06:56:01.003Z,6.3
2022-11-15T06:58:01.025Z,6.2
2022-11-15T07:00:01.132Z,6.3
2022-11-15T07:02:00.994Z,6.1
2022-11-15T07:03:00.983Z,6.2
2022-11-15T07:04:01.009Z,6.1
2022-11-15T07:06:06.701Z,6.2
2022-11-15T07:07:01.088Z,6.4
2022-11-15T07:09:01.018Z,6.3
2022-11-15T07:10:01.011Z,6.5
2022-11-15T07:11:01.041Z,6.3
2022-11-15T07:13:00.992Z,6.4
2022-11-15T07:14:01.006Z,6.5
2022-11-15T07:16:01.016Z,6.4
2022-11-15T07:17:01.010Z,6.5
2022-11-15T07:19:01.016Z,6.6
2022-11-15T07:21:00.999Z,6.5
2022-11-15T07:22:01.002Z,6.7
2022-11-15T07:25:01.020Z,6.6
2022-11-15T07:27:00.976Z,6.7
2022-11-15T07:31:01.089Z,6.8
2022-11-15T07:32:01.103Z,6.7
2022-11-15T07:33:01.144Z,6.8
2022-11-15T07:35:00.953Z,6.7
2022-11-15T07:36:00.997Z,6.9
2022-11-15T07:39:00.969Z,7
2022-11-15T07:42:01.078Z,7.2
2022-11-15T07:46:01.010Z,7.2
2022-11-15T07:48:00.929Z,7.3
2022-11-15T07:49:00.943Z,7.2
2022-11-15T07:50:01.000Z,7.3
2022-11-15T07:52:00.938Z,7.4
2022-11-15T07:53:00.942Z,7.5
2022-11-15T07:56:00.959Z,7.6
2022-11-15T07:58:00.967Z,7.5
2022-11-15T08:00:01.061Z,7.7
2022-11-15T08:05:00.959Z,7.9
2022-11-15T08:06:00.947Z,8
2022-11-15T08:09:00.936Z,8.2
2022-11-15T08:10:01.008Z,8.1
2022-11-15T08:12:00.967Z,8.2
2022-11-15T08:14:00.946Z,8.3
2022-11-15T08:18:00.977Z,8.5
2022-11-15T08:20:00.942Z,8.6
2022-11-15T08:21:00.973Z,8.7
2022-11-15T08:23:00.960Z,8.8
2022-11-15T08:24:01.000Z,8.7
2022-11-15T08:25:01.013Z,8.8
2022-11-15T08:28:01.053Z,9
2022-11-15T08:31:00.963Z,9.1
2022-11-15T08:34:00.982Z,9.2
2022-11-15T08:37:00.964Z,9.4
2022-11-15T08:38:00.955Z,9.5
2022-11-15T08:39:01.008Z,9.4
2022-11-15T08:42:00.946Z,9.7
2022-11-15T08:43:00.945Z,9.5
2022-11-15T08:44:01.008Z,9.7
2022-11-15T08:45:01.016Z,9.8
2022-11-15T08:47:00.958Z,9.9
2022-11-15T08:50:00.948Z,10.1
2022-11-15T08:51:00.972Z,10
2022-11-15T08:52:00.967Z,10.1
2022-11-15T08:55:00.987Z,10.2
2022-11-15T08:56:01.000Z,10.3
2022-11-15T08:58:00.969Z,10.5
2022-11-15T08:59:00.929Z,10.4
2022-11-15T09:00:00.995Z,10.5
2022-11-15T09:02:01.031Z,10.7
2022-11-15T09:04:00.934Z,10.8
2022-11-15T09:07:00.979Z,10.9
2022-11-15T09:08:03.995Z,11
2022-11-15T09:10:01.003Z,11.2
2022-11-15T09:12:02.601Z,11.2
2022-11-15T09:13:00.940Z,11.3
2022-11-15T09:16:01.027Z,11.4
2022-11-15T09:19:00.938Z,11.7
2022-11-15T09:20:00.977Z,11.9
2022-11-15T09:21:01.019Z,11.6
2022-11-15T09:22:00.997Z,11.9
2022-11-15T09:24:00.950Z,12
2022-11-15T09:25:00.943Z,11.9
2022-11-15T09:26:00.988Z,12
2022-11-15T09:27:01.001Z,12.2
2022-11-15T09:29:00.973Z,12.2
2022-11-15T09:31:00.993Z,12.4
2022-11-15T09:33:01.123Z,12.5
2022-11-15T09:35:01.036Z,12.6
2022-11-15T09:37:00.958Z,12.6
2022-11-15T09:38:01.011Z,12.8
2022-11-15T09:40:01.002Z,12.9
2022-11-15T09:42:01.031Z,13
2022-11-15T09:44:00.989Z,13.2
2022-11-15T09:47:01.013Z,13.3
2022-11-15T09:50:00.982Z,13.4
2022-11-15T09:51:01.009Z,13.5
2022-11-15T09:53:01.048Z,13.6
2022-11-15T09:54:45.965Z,13.7
2022-11-15T09:56:00.959Z,13.8
2022-11-15T09:59:01.034Z,13.9
2022-11-15T10:02:01.024Z,14
2022-11-15T10:03:01.040Z,14.1
2022-11-15T10:05:00.992Z,14.3
2022-11-15T10:06:01.132Z,14.2
2022-11-15T10:09:01.031Z,14.4
2022-11-15T10:17:01.090Z,14.7
2022-11-15T10:19:01.179Z,15
2022-11-15T10:20:05.226Z,14.9
2022-11-15T10:22:01.189Z,14.8
2022-11-15T10:24:01.238Z,15
2022-11-15T10:25:01.273Z,15.1
2022-11-15T10:28:00.948Z,15.1
2022-11-15T10:31:01.018Z,15.2
2022-11-15T10:32:01.043Z,15.1
2022-11-15T10:34:00.971Z,15.2
2022-11-15T10:36:00.943Z,15.3
2022-11-15T10:39:00.930Z,15.4
2022-11-15T10:41:00.976Z,15.5
2022-11-15T10:42:02.823Z,15.4
2022-11-15T10:43:00.987Z,15.6
2022-11-15T10:47:00.957Z,15.7
2022-11-15T10:49:00.975Z,15.8
2022-11-15T10:52:00.958Z,15.7
2022-11-15T10:53:00.980Z,15.9
2022-11-15T10:55:00.986Z,16.1
2022-11-15T10:56:00.960Z,15.9
2022-11-15T10:58:00.948Z,16
2022-11-15T10:59:00.989Z,15.9
2022-11-15T11:01:00.972Z,16.1
2022-11-15T11:02:00.965Z,16.2
2022-11-15T11:04:00.991Z,16.3
2022-11-15T11:06:00.980Z,16.2
2022-11-15T11:10:01.001Z,16.3
2022-11-15T11:11:02.921Z,16.4
2022-11-15T11:13:00.993Z,16.4
2022-11-15T11:15:01.106Z,16.4
2022-11-15T11:17:00.955Z,16.4
2022-11-15T11:18:00.985Z,16.6
2022-11-15T11:19:00.991Z,16.5
2022-11-15T11:21:00.996Z,16.5
2022-11-15T11:22:00.989Z,16.8
2022-11-15T11:24:00.953Z,16.8
2022-11-15T11:26:00.934Z,16.9
2022-11-15T11:29:00.953Z,16.8
2022-11-15T11:30:01.163Z,16.9
2022-11-15T11:32:00.981Z,16.9
2022-11-15T11:33:01.049Z,17
2022-11-15T11:35:00.952Z,17
2022-11-15T11:36:01.100Z,17.1
2022-11-15T11:38:00.950Z,16.9
2022-11-15T11:39:01.019Z,16.8
2022-11-15T11:41:01.037Z,16.9
2022-11-15T11:43:00.941Z,16.9
2022-11-15T11:44:00.934Z,17
2022-11-15T11:46:00.946Z,16.9
2022-11-15T11:47:00.982Z,17
2022-11-15T11:48:01.169Z,17.1
2022-11-15T11:50:00.938Z,17.1
2022-11-15T11:53:03.841Z,17
2022-11-15T11:54:00.940Z,17.1
2022-11-15T11:55:00.941Z,17
2022-11-15T11:56:00.990Z,17.1
2022-11-15T11:59:01.023Z,17.2
2022-11-15T12:01:01.086Z,17
2022-11-15T12:03:01.003Z,17.1
2022-11-15T12:04:00.956Z,17
2022-11-15T12:07:01.006Z,17.1
2022-11-15T12:08:03.195Z,17
2022-11-15T12:12:00.990Z,16.9
2022-11-15T12:13:00.959Z,17
2022-11-15T12:14:00.980Z,16.9
2022-11-15T12:16:02.123Z,17
2022-11-15T12:18:00.993Z,17.1
2022-11-15T12:19:01.017Z,16.9
2022-11-15T12:21:00.961Z,17.1
2022-11-15T12:22:00.966Z,17
2022-11-15T12:24:01.004Z,16.9
2022-11-15T12:26:00.963Z,17
2022-11-15T12:28:00.975Z,16.9
2022-11-15T12:34:05.960Z,16.8
2022-11-15T12:35:00.981Z,16.6
2022-11-15T12:36:00.981Z,16.8
2022-11-15T12:38:00.986Z,16.7
2022-11-15T12:39:01.008Z,16.6
2022-11-15T12:40:03.664Z,16.7
2022-11-15T12:43:01.011Z,16.8
2022-11-15T12:47:00.948Z,16.5
2022-11-15T12:53:01.082Z,16.5
2022-11-15T12:58:01.001Z,16.3
2022-11-15T13:00:01.067Z,16.2
2022-11-15T13:05:01.010Z,16.1
2022-11-15T13:07:01.163Z,16
2022-11-15T13:14:00.983Z,15.9
2022-11-15T13:16:01.154Z,16
2022-11-15T13:17:01.109Z,15.9
2022-11-15T13:18:01.088Z,15.8
2022-11-15T13:20:00.990Z,15.7
2022-11-15T13:24:01.030Z,15.6
2022-11-15T13:28:05.148Z,15.6
2022-11-15T13:32:01.000Z,15.5
2022-11-15T13:34:01.097Z,15.6
2022-11-15T13:41:01.172Z,15.3
2022-11-15T13:45:01.195Z,15.2
2022-11-15T13:47:00.960Z,15.4
2022-11-15T13:49:01.026Z,15.3
2022-11-15T13:50:01.013Z,15.1
2022-11-15T13:55:01.124Z,15
2022-11-15T14:00:01.190Z,14.9
2022-11-15T14:02:00.991Z,14.9
2022-11-15T14:03:00.983Z,14.7
2022-11-15T14:04:01.012Z,14.8
2022-11-15T14:06:00.999Z,14.7
2022-11-15T14:09:01.106Z,14.8
2022-11-15T14:11:01.000Z,14.6
2022-11-15T14:12:00.999Z,14.5
2022-11-15T14:14:01.051Z,14.4
2022-11-15T14:15:01.131Z,14.6
2022-11-15T14:17:00.990Z,14.6
2022-11-15T14:19:00.962Z,14.3
2022-11-15T14:20:00.926Z,14.4
2022-11-15T14:23:00.933Z,14.2
2022-11-15T14:27:00.944Z,14.1
2022-11-15T14:29:01.000Z,14.2
2022-11-15T14:30:01.209Z,14
2022-11-15T14:34:00.957Z,13.8
2022-11-15T14:37:01.003Z,13.7
2022-11-15T14:39:00.972Z,13.7
2022-11-15T14:40:01.007Z,13.6
2022-11-15T14:42:00.953Z,13.5
2022-11-15T14:44:00.959Z,13.4
2022-11-15T14:47:01.074Z,13.2
2022-11-15T14:49:00.951Z,13.1
2022-11-15T14:50:00.929Z,13.2
2022-11-15T14:52:00.976Z,13.1
2022-11-15T14:54:00.983Z,13
2022-11-15T14:56:00.965Z,12.8
2022-11-15T14:59:00.963Z,12.7
2022-11-15T15:00:01.142Z,12.8
2022-11-15T15:03:01.087Z,12.4
2022-11-15T15:05:00.927Z,12.4
2022-11-15T15:06:00.970Z,12.3
2022-11-15T15:08:01.103Z,12.2
2022-11-15T15:09:01.020Z,12.1
2022-11-15T15:11:01.007Z,12.1
2022-11-15T15:13:00.988Z,11.9
2022-11-15T15:15:01.032Z,11.8
2022-11-15T15:19:00.994Z,11.7
2022-11-15T15:22:01.024Z,11.6
2022-11-15T15:26:00.963Z,11.4
2022-11-15T15:27:00.937Z,11.5
2022-11-15T15:28:00.951Z,11.4
2022-11-15T15:31:00.985Z,11.3
2022-11-15T15:34:01.009Z,11.1
2022-11-15T15:35:00.988Z,11.2
2022-11-15T15:37:00.937Z,11
2022-11-15T15:39:00.978Z,10.9
2022-11-15T15:40:00.981Z,10.7
2022-11-15T15:43:00.924Z,10.7
2022-11-15T15:44:00.974Z,10.6
2022-11-15T15:45:01.011Z,10.7
2022-11-15T15:47:00.933Z,10.5
2022-11-15T15:49:00.969Z,10.4
2022-11-15T15:51:00.987Z,10.4
2022-11-15T15:53:00.943Z,10.2
2022-11-15T15:54:00.970Z,10.1
2022-11-15T15:56:01.056Z,10.1
2022-11-15T15:58:00.970Z,9.9
2022-11-15T16:03:00.955Z,9.8
2022-11-15T16:05:00.941Z,9.6
2022-11-15T16:07:00.991Z,9.4
2022-11-15T16:09:14.522Z,9.4
2022-11-15T16:11:00.930Z,9.5
2022-11-15T16:12:00.981Z,9.3
2022-11-15T16:15:01.091Z,9.3
2022-11-15T16:17:00.993Z,9.1
2022-11-15T16:21:01.005Z,9
2022-11-15T16:24:00.932Z,8.9
2022-11-15T16:26:00.953Z,9
2022-11-15T16:28:01.006Z,8.8
2022-11-15T16:30:01.071Z,8.7
2022-11-15T16:35:00.958Z,8.6
2022-11-15T16:37:00.958Z,8.5
2022-11-15T16:38:01.013Z,8.6
2022-11-15T16:39:00.989Z,8.5
2022-11-15T16:41:00.942Z,8.4
2022-11-15T16:42:00.969Z,8.3
2022-11-15T16:44:00.947Z,8.5
2022-11-15T16:45:01.089Z,8.3
2022-11-15T16:49:00.953Z,8.5
2022-11-15T16:50:00.957Z,8.4
2022-11-15T16:55:00.951Z,8.3
2022-11-15T16:58:00.938Z,8.4
2022-11-15T17:01:00.989Z,8.2
2022-11-15T17:03:00.960Z,8.4
2022-11-15T17:04:00.979Z,8.3
2022-11-15T17:06:00.936Z,8.2
2022-11-15T17:08:00.999Z,8.3
2022-11-15T17:11:00.998Z,8.2
2022-11-15T17:18:00.998Z,8.2
2022-11-15T17:19:00.976Z,8.3
2022-11-15T17:20:00.984Z,8.4
2022-11-15T17:26:17.773Z,8.3
2022-11-15T17:28:00.963Z,8.2
2022-11-15T17:34:00.962Z,8.1
2022-11-15T17:38:00.985Z,8.2
2022-11-15T17:40:00.944Z,8.2
2022-11-15T17:41:00.926Z,8.1
2022-11-15T17:46:00.992Z,8
2022-11-15T17:49:00.961Z,8.1
2022-11-15T17:50:00.939Z,8
2022-11-15T17:51:00.929Z,7.8
2022-11-15T17:52:00.980Z,7.9
2022-11-15T17:53:01.019Z,8
2022-11-15T17:56:00.944Z,7.8
2022-11-15T17:57:00.944Z,7.9
2022-11-15T17:59:00.962Z,8
2022-11-15T18:00:01.091Z,7.8
2022-11-15T18:02:00.942Z,7.8
2022-11-15T18:04:00.980Z,7.7
2022-11-15T18:05:00.966Z,7.9
2022-11-15T18:07:01.067Z,7.8
2022-11-15T18:09:01.029Z,7.8
2022-11-15T18:12:00.995Z,7.8
2022-11-15T18:14:01.025Z,7.7
2022-11-15T18:15:01.058Z,7.6
2022-11-15T18:17:00.958Z,7.6
2022-11-15T18:20:00.996Z,7.5
2022-11-15T18:22:01.010Z,7.6
2022-11-15T18:24:00.991Z,7.8
2022-11-15T18:26:00.954Z,7.5
2022-11-15T18:32:00.949Z,7.5
2022-11-15T18:33:01.011Z,7.6
2022-11-15T18:36:00.989Z,7.6
2022-11-15T18:38:00.951Z,7.5
2022-11-15T18:39:01.001Z,7.6
2022-11-15T18:40:00.972Z,7.5
2022-11-15T18:42:00.953Z,7.6
2022-11-15T18:44:00.978Z,7.5
2022-11-15T18:45:01.084Z,7.4
2022-11-15T18:49:00.985Z,7.4
2022-11-15T18:51:04.842Z,7.3
2022-11-15T18:52:00.976Z,7.4
2022-11-15T18:53:00.995Z,7.3
2022-11-15T18:59:00.979Z,7.2
2022-11-15T19:06:00.929Z,7.1
2022-11-15T19:07:01.023Z,7.2
2022-11-15T19:08:01.018Z,7.3
2022-11-15T19:09:01.115Z,7.2
2022-11-15T19:12:01.227Z,7.3
2022-11-15T19:13:01.089Z,7.4
2022-11-15T19:14:01.108Z,7.3
2022-11-15T19:17:00.981Z,7.4
2022-11-15T19:18:01.051Z,7.3
2022-11-15T19:20:01.005Z,7.4
2022-11-15T19:23:00.957Z,7.4
2022-11-15T19:26:01.083Z,7.5
2022-11-15T19:28:00.956Z,7.6
2022-11-15T19:29:00.971Z,7.5
2022-11-15T19:30:01.126Z,7.4
2022-11-15T19:34:00.992Z,7.6
2022-11-15T19:36:01.117Z,7.5
2022-11-15T19:38:00.976Z,7.4
2022-11-15T19:41:00.987Z,7.5
2022-11-15T19:42:01.003Z,7.3
2022-11-15T19:46:02.430Z,7.2
2022-11-15T19:48:00.978Z,7.3
2022-11-15T19:49:00.977Z,7.2
2022-11-15T19:52:00.985Z,7.3
2022-11-15T19:57:00.986Z,7
2022-11-15T19:58:00.997Z,7.1
2022-11-15T20:00:05.952Z,6.9
2022-11-15T20:04:01.009Z,7
2022-11-15T20:06:00.975Z,6.9
2022-11-15T20:09:00.959Z,6.8
2022-11-15T20:10:01.002Z,6.9
2022-11-15T20:11:00.984Z,6.8
2022-11-15T20:12:00.982Z,6.7
2022-11-15T20:13:01.067Z,6.8
2022-11-15T20:15:01.113Z,6.6
2022-11-15T20:18:00.994Z,6.5
2022-11-15T20:20:01.012Z,6.5
2022-11-15T20:22:00.974Z,6.6
2022-11-15T20:23:03.336Z,6.5
2022-11-15T20:25:01.065Z,6.4
2022-11-15T20:27:00.973Z,6.5
2022-11-15T20:29:01.009Z,6.4
2022-11-15T20:33:01.010Z,6.5
2022-11-15T20:35:00.986Z,6.2
2022-11-15T20:36:01.007Z,6.5
2022-11-15T20:37:01.003Z,6.4
2022-11-15T20:40:00.999Z,6.2
2022-11-15T20:42:01.051Z,6.1
2022-11-15T20:45:01.026Z,6.1
2022-11-15T20:51:00.938Z,6.3
2022-11-15T20:52:01.009Z,6.1
2022-11-15T20:54:00.923Z,6.2
2022-11-15T20:55:01.024Z,6.4
2022-11-15T20:59:01.011Z,6.5
2022-11-15T21:01:00.987Z,6.4
2022-11-15T21:02:01.035Z,6.6
2022-11-15T21:03:00.995Z,6.8
2022-11-15T21:05:00.966Z,6.7
2022-11-15T21:06:00.985Z,6.8
2022-11-15T21:09:00.944Z,6.9
2022-11-15T21:10:01.009Z,7
2022-11-15T21:11:01.026Z,6.9
2022-11-15T21:16:01.000Z,7.1
2022-11-15T21:18:00.969Z,7
2022-11-15T21:22:00.975Z,7.1
2022-11-15T21:24:00.996Z,7
2022-11-15T21:25:01.007Z,7.1
2022-11-15T21:27:00.978Z,7.1
2022-11-15T21:28:01.047Z,7
2022-11-15T21:31:01.000Z,7
2022-11-15T21:32:05.689Z,7.2
2022-11-15T21:33:00.988Z,7.1
2022-11-15T21:34:00.979Z,7.2
2022-11-15T21:35:00.990Z,7.1
2022-11-15T21:43:01.008Z,7.2
2022-11-15T21:48:00.979Z,7.2
2022-11-15T21:50:01.019Z,7.1
2022-11-15T21:56:00.964Z,7.3
2022-11-15T22:00:01.048Z,7.2
2022-11-15T22:03:00.962Z,7.3
2022-11-15T22:06:00.959Z,7.4
2022-11-15T22:08:00.981Z,7.5
2022-11-15T22:10:00.971Z,7.5
2022-11-15T22:11:01.014Z,7.6
2022-11-15T22:12:01.010Z,7.5
2022-11-15T22:14:00.949Z,7.6
2022-11-15T22:15:01.185Z,7.5
2022-11-15T22:17:00.984Z,7.8
2022-11-15T22:18:00.926Z,7.6
2022-11-15T22:21:00.987Z,7.7
2022-11-15T22:23:00.956Z,7.8
2022-11-15T22:24:00.985Z,7.6
2022-11-15T22:25:01.169Z,7.7
2022-11-15T22:26:01.001Z,7.8
2022-11-15T22:28:00.982Z,7.8
2022-11-15T22:29:00.962Z,7.7
2022-11-15T22:33:00.987Z,7.6
2022-11-15T22:34:01.010Z,7.7
2022-11-15T22:36:00.966Z,7.5
2022-11-15T22:37:19.565Z,7.6
2022-11-15T22:41:00.964Z,7.5
2022-11-15T22:45:01.091Z,7.4
2022-11-15T22:47:00.972Z,7.5
2022-11-15T22:48:00.995Z,7.4
2022-11-15T22:50:00.994Z,7.3
2022-11-15T22:53:00.998Z,7.2
2022-11-15T22:55:00.979Z,7.2
2022-11-15T22:56:00.992Z,7.1
2022-11-15T22:59:00.970Z,7.1
2022-11-15T23:00:01.030Z,7
2022-11-15T23:02:00.964Z,7.1
2022-11-15T23:03:00.975Z,6.9
2022-11-15T23:04:01.037Z,7
2022-11-15T23:06:00.976Z,6.9
2022-11-15T23:07:01.015Z,6.8
2022-11-15T23:09:00.975Z,6.7
2022-11-15T23:10:00.963Z,6.8
2022-11-15T23:11:01.068Z,6.7
2022-11-15T23:14:00.975Z,6.6
2022-11-15T23:15:01.014Z,6.7
2022-11-15T23:19:00.982Z,6.5
2022-11-15T23:21:00.981Z,6.7
2022-11-15T23:23:00.964Z,6.5
2022-11-15T23:24:00.964Z,6.8
2022-11-15T23:27:00.957Z,6.7
2022-11-15T23:28:01.003Z,6.9
2022-11-15T23:30:01.136Z,7
2022-11-15T23:32:02.245Z,6.9
2022-11-15T23:35:00.972Z,6.9
2022-11-15T23:38:00.984Z,7
2022-11-15T23:41:01.007Z,6.8
2022-11-15T23:45:01.076Z,6.6
2022-11-15T23:47:00.994Z,6.7
2022-11-15T23:49:01.001Z,6.6
2022-11-15T23:51:00.991Z,6.4
2022-11-15T23:55:00.972Z,6.3
2022-11-15T23:56:00.954Z,6.2
2022-11-15T23:57:00.969Z,6.3
